createdAt,value
2022-08-18T00:00:27.382Z,740.76
2022-08-18T00:01:27.399Z,740.67
2022-08-18T00:02:30.038Z,741.04
2022-08-18T00:03:56.366Z,741.57
2022-08-18T00:04:35.789Z,742.25
2022-08-18T00:05:27.328Z,741.48
2022-08-18T00:06:28.275Z,741.44
2022-08-18T00:07:27.312Z,741.78
2022-08-18T00:08:27.303Z,742.16
2022-08-18T00:09:32.008Z,742.31
2022-08-18T00:10:27.279Z,742.02
2022-08-18T00:11:27.253Z,741.23
2022-08-18T00:12:27.275Z,740.47
2022-08-18T00:13:27.247Z,740.34
2022-08-18T00:14:27.239Z,740.23
2022-08-18T00:15:27.246Z,740.11
2022-08-18T00:16:27.204Z,739.63
2022-08-18T00:17:27.216Z,739.50
2022-08-18T00:18:27.184Z,739.40
2022-08-18T00:19:45.746Z,739.54
2022-08-18T00:20:27.165Z,739.84
2022-08-18T00:21:27.173Z,740.20
2022-08-18T00:22:27.176Z,740.66
2022-08-18T00:23:27.132Z,740.94
2022-08-18T00:24:27.119Z,741.27
2022-08-18T00:25:27.123Z,741.46
2022-08-18T00:26:27.114Z,741.76
2022-08-18T00:27:28.634Z,742.03
2022-08-18T00:28:27.099Z,742.34
2022-08-18T00:29:27.055Z,742.46
2022-08-18T00:30:27.074Z,742.28
2022-08-18T00:31:27.036Z,742.52
2022-08-18T00:32:27.028Z,742.45
2022-08-18T00:33:27.018Z,742.41
2022-08-18T00:34:27.003Z,742.64
2022-08-18T00:35:28.780Z,742.82
2022-08-18T00:36:26.989Z,742.94
2022-08-18T00:37:27.010Z,742.94
2022-08-18T00:38:26.994Z,742.90
2022-08-18T00:39:27.065Z,743.07
2022-08-18T00:40:26.980Z,743.45
2022-08-18T00:41:26.930Z,743.83
2022-08-18T00:42:30.679Z,744.00
2022-08-18T00:43:26.915Z,744.27
2022-08-18T00:44:26.905Z,744.69
2022-08-18T00:45:26.929Z,743.98
2022-08-18T00:48:52.458Z,743.08
2022-08-18T00:49:53.444Z,742.77
2022-08-18T00:50:53.410Z,742.61
2022-08-18T00:51:53.396Z,742.12
2022-08-18T00:52:53.392Z,741.70
2022-08-18T00:53:53.410Z,741.44
2022-08-18T00:54:53.432Z,741.35
2022-08-18T00:55:54.424Z,741.17
2022-08-18T00:56:53.360Z,741.21
2022-08-18T00:57:53.630Z,741.21
2022-08-18T00:58:53.338Z,741.32
2022-08-18T00:59:53.333Z,741.40
2022-08-18T01:00:53.392Z,741.83
2022-08-18T01:01:53.310Z,741.57
2022-08-18T01:02:53.283Z,741.60
2022-08-18T01:03:53.271Z,741.76
2022-08-18T01:04:53.260Z,741.95
2022-08-18T01:05:53.258Z,742.39
2022-08-18T01:06:53.257Z,742.94
2022-08-18T01:07:53.527Z,743.42
2022-08-18T01:08:53.249Z,743.40
2022-08-18T01:09:53.205Z,743.33
2022-08-18T01:10:53.200Z,743.79
2022-08-18T01:11:53.204Z,744.35
2022-08-18T01:12:53.196Z,744.90
2022-08-18T01:13:53.166Z,745.12
2022-08-18T01:14:53.149Z,745.33
2022-08-18T01:15:53.141Z,745.16
2022-08-18T01:16:55.321Z,745.06
2022-08-18T01:17:53.287Z,744.90
2022-08-18T01:18:53.104Z,744.95
2022-08-18T01:19:53.090Z,744.71
2022-08-18T01:20:53.084Z,744.71
2022-08-18T01:21:53.088Z,745.10
2022-08-18T01:22:53.081Z,745.49
2022-08-18T01:23:53.054Z,745.33
2022-08-18T01:24:53.039Z,744.97
2022-08-18T01:25:53.031Z,744.71
2022-08-18T01:26:53.011Z,744.75
2022-08-18T01:27:53.205Z,744.94
2022-08-18T01:28:53.021Z,745.24
2022-08-18T01:29:52.986Z,745.44
2022-08-18T01:30:52.986Z,745.51
2022-08-18T01:31:54.620Z,745.70
2022-08-18T01:32:52.950Z,745.94
2022-08-18T01:33:52.962Z,745.96
2022-08-18T01:34:52.926Z,746.19
2022-08-18T01:35:52.911Z,745.85
2022-08-18T01:36:52.973Z,745.97
2022-08-18T01:37:53.041Z,746.02
2022-08-18T01:38:52.916Z,746.18
2022-08-18T01:41:22.676Z,746.42
2022-08-18T01:41:23.964Z,746.80
2022-08-18T01:41:52.883Z,747.40
2022-08-18T01:42:52.844Z,747.75
2022-08-18T01:43:52.848Z,747.81
2022-08-18T01:44:52.823Z,747.89
2022-08-18T01:45:52.804Z,747.99
2022-08-18T01:46:52.798Z,747.87
2022-08-18T01:47:52.786Z,748.04
2022-08-18T01:48:52.801Z,748.34
2022-08-18T01:49:52.758Z,748.50
2022-08-18T01:50:52.756Z,748.81
2022-08-18T01:51:52.736Z,748.85
2022-08-18T01:52:52.746Z,749.12
2022-08-18T01:53:52.744Z,749.27
2022-08-18T01:54:52.712Z,749.35
2022-08-18T01:55:52.690Z,749.32
2022-08-18T01:56:52.685Z,749.44
2022-08-18T01:57:53.030Z,749.57
2022-08-18T01:58:52.685Z,749.92
2022-08-18T01:59:52.671Z,750.10
2022-08-18T02:00:52.654Z,750.38
2022-08-18T02:01:53.326Z,750.47
2022-08-18T02:02:57.990Z,750.39
2022-08-18T02:03:52.630Z,750.05
2022-08-18T02:04:52.605Z,750.13
2022-08-18T02:05:52.584Z,750.43
2022-08-18T02:06:52.578Z,750.85
2022-08-18T02:07:54.072Z,751.16
2022-08-18T02:08:53.790Z,751.34
2022-08-18T02:09:52.549Z,751.46
2022-08-18T02:10:52.556Z,751.09
2022-08-18T02:11:56.079Z,751.21
2022-08-18T02:12:52.544Z,750.94
2022-08-18T02:13:52.524Z,751.11
2022-08-18T02:14:52.491Z,750.99
2022-08-18T02:15:52.468Z,750.26
2022-08-18T02:16:52.466Z,750.25
2022-08-18T02:17:52.757Z,750.21
2022-08-18T02:18:52.450Z,750.67
2022-08-18T02:19:52.430Z,750.88
2022-08-18T02:20:52.420Z,751.21
2022-08-18T02:21:52.412Z,751.42
2022-08-18T02:22:52.427Z,751.25
2022-08-18T02:23:53.879Z,750.88
2022-08-18T02:24:52.375Z,750.88
2022-08-18T02:25:52.357Z,750.62
2022-08-18T02:26:52.376Z,750.59
2022-08-18T02:27:52.601Z,750.82
2022-08-18T02:28:52.334Z,751.37
2022-08-18T02:29:52.318Z,751.62
2022-08-18T02:30:52.301Z,751.76
2022-08-18T02:31:52.322Z,751.77
2022-08-18T02:32:52.316Z,751.38
2022-08-18T02:33:52.791Z,751.52
2022-08-18T02:34:52.272Z,751.54
2022-08-18T02:35:52.251Z,751.59
2022-08-18T02:36:52.267Z,751.75
2022-08-18T02:37:52.349Z,751.95
2022-08-18T02:38:58.694Z,752.44
2022-08-18T02:39:52.287Z,752.87
2022-08-18T02:40:52.204Z,753.20
2022-08-18T02:41:52.210Z,753.59
2022-08-18T02:42:52.177Z,754.09
2022-08-18T02:43:52.165Z,754.60
2022-08-18T02:44:52.163Z,754.20
2022-08-18T02:45:52.166Z,752.81
2022-08-18T02:46:52.128Z,752.10
2022-08-18T02:47:52.381Z,751.53
2022-08-18T02:50:01.105Z,751.80
2022-08-18T02:51:02.095Z,751.14
2022-08-18T02:52:02.098Z,750.90
2022-08-18T02:53:02.053Z,751.20
2022-08-18T02:54:02.039Z,751.32
2022-08-18T02:55:02.030Z,751.62
2022-08-18T02:56:02.016Z,751.92
2022-08-18T02:57:01.992Z,752.44
2022-08-18T02:58:02.017Z,752.43
2022-08-18T02:59:02.028Z,752.71
2022-08-18T03:00:02.055Z,752.81
2022-08-18T03:01:02.046Z,752.62
2022-08-18T03:02:01.942Z,753.11
2022-08-18T03:03:01.938Z,753.53
2022-08-18T03:04:01.932Z,754.16
2022-08-18T03:05:01.913Z,754.64
2022-08-18T03:06:01.891Z,754.68
2022-08-18T03:07:01.900Z,754.95
2022-08-18T03:08:01.869Z,754.95
2022-08-18T03:09:01.860Z,755.23
2022-08-18T03:10:31.852Z,755.49
2022-08-18T03:11:01.842Z,755.62
2022-08-18T03:12:01.857Z,755.92
2022-08-18T03:13:01.841Z,756.27
2022-08-18T03:14:01.829Z,756.51
2022-08-18T03:15:01.800Z,756.82
2022-08-18T03:16:01.790Z,757.04
2022-08-18T03:17:01.769Z,757.10
2022-08-18T03:18:01.797Z,757.21
2022-08-18T03:19:01.759Z,757.21
2022-08-18T03:20:01.735Z,757.16
2022-08-18T03:21:01.731Z,757.29
2022-08-18T03:22:02.889Z,757.24
2022-08-18T03:23:05.649Z,757.31
2022-08-18T03:24:02.745Z,757.28
2022-08-18T03:25:01.721Z,757.61
2022-08-18T03:26:01.675Z,757.71
2022-08-18T03:27:01.780Z,757.77
2022-08-18T03:28:01.651Z,757.96
2022-08-18T03:29:01.634Z,758.26
2022-08-18T03:30:01.658Z,757.69
2022-08-18T03:31:01.638Z,756.26
2022-08-18T03:32:01.601Z,755.16
2022-08-18T03:33:01.601Z,754.98
2022-08-18T03:34:01.638Z,754.53
2022-08-18T03:35:01.598Z,753.97
2022-08-18T03:36:01.570Z,753.34
2022-08-18T03:37:01.561Z,752.97
2022-08-18T03:38:01.553Z,753.24
2022-08-18T03:39:01.532Z,753.43
2022-08-18T03:40:01.685Z,752.90
2022-08-18T03:41:01.514Z,752.55
2022-08-18T03:42:02.195Z,752.65
2022-08-18T03:43:02.215Z,752.71
2022-08-18T03:44:01.468Z,752.33
2022-08-18T03:45:12.481Z,752.27
2022-08-18T03:46:01.459Z,752.40
2022-08-18T03:47:01.458Z,752.83
2022-08-18T03:48:01.439Z,752.24
2022-08-18T03:49:01.410Z,752.14
2022-08-18T03:50:01.425Z,752.48
2022-08-18T03:51:05.181Z,752.45
2022-08-18T03:52:01.610Z,753.03
2022-08-18T03:53:01.386Z,753.16
2022-08-18T03:54:01.363Z,753.15
2022-08-18T03:55:02.804Z,753.11
2022-08-18T03:56:01.346Z,753.25
2022-08-18T03:57:01.331Z,753.42
2022-08-18T03:58:01.318Z,753.73
2022-08-18T03:59:01.305Z,754.22
2022-08-18T04:00:01.313Z,754.25
2022-08-18T04:01:01.334Z,754.42
2022-08-18T04:02:01.294Z,754.12
2022-08-18T04:03:01.264Z,753.14
2022-08-18T04:04:01.275Z,752.08
2022-08-18T04:05:01.263Z,751.83
2022-08-18T04:06:01.234Z,752.15
2022-08-18T04:07:01.221Z,752.19
2022-08-18T04:08:01.207Z,752.39
2022-08-18T04:09:01.203Z,752.07
2022-08-18T04:10:01.221Z,752.24
2022-08-18T04:11:01.569Z,752.24
2022-08-18T04:12:01.161Z,752.17
2022-08-18T04:13:01.165Z,751.88
2022-08-18T04:14:02.460Z,751.95
2022-08-18T04:15:01.162Z,751.63
2022-08-18T04:16:01.121Z,751.58
2022-08-18T04:17:01.115Z,751.45
2022-08-18T04:18:04.089Z,751.36
2022-08-18T04:19:01.077Z,751.22
2022-08-18T04:20:01.091Z,750.65
2022-08-18T04:21:01.061Z,750.62
2022-08-18T04:22:01.048Z,750.31
2022-08-18T04:23:01.035Z,749.93
2022-08-18T04:24:01.020Z,749.58
2022-08-18T04:25:01.008Z,749.79
2022-08-18T04:26:01.010Z,749.87
2022-08-18T04:27:00.996Z,750.01
2022-08-18T04:28:00.979Z,749.92
2022-08-18T04:29:00.966Z,750.01
2022-08-18T04:30:00.958Z,750.12
2022-08-18T04:31:00.960Z,750.18
2022-08-18T04:32:00.930Z,750.18
2022-08-18T04:33:00.923Z,749.85
2022-08-18T04:34:00.920Z,749.95
2022-08-18T04:35:02.974Z,749.94
2022-08-18T04:36:00.899Z,749.42
2022-08-18T04:37:00.921Z,749.56
2022-08-18T04:38:00.870Z,749.53
2022-08-18T04:39:00.853Z,749.26
2022-08-18T04:40:00.927Z,749.07
2022-08-18T04:41:00.830Z,748.67
2022-08-18T04:42:00.849Z,748.49
2022-08-18T04:43:00.816Z,748.39
2022-08-18T04:44:00.817Z,748.62
2022-08-18T04:45:00.786Z,748.55
2022-08-18T04:46:00.803Z,748.40
2022-08-18T04:47:00.792Z,748.47
2022-08-18T04:48:00.788Z,748.18
2022-08-18T04:49:00.756Z,747.96
2022-08-18T04:52:36.333Z,747.38
2022-08-18T04:52:54.453Z,746.95
2022-08-18T04:53:54.440Z,747.08
2022-08-18T04:54:54.424Z,747.01
2022-08-18T04:55:54.412Z,747.24
2022-08-18T04:56:54.397Z,747.52
2022-08-18T04:57:54.413Z,747.50
2022-08-18T04:58:54.374Z,747.36
2022-08-18T04:59:54.368Z,747.33
2022-08-18T05:00:54.427Z,747.38
2022-08-18T05:01:54.353Z,747.12
2022-08-18T05:02:54.365Z,746.98
2022-08-18T05:03:54.323Z,747.10
2022-08-18T05:04:54.317Z,747.28
2022-08-18T05:05:54.305Z,747.37
2022-08-18T05:06:54.291Z,747.41
2022-08-18T05:07:54.409Z,747.19
2022-08-18T05:08:54.276Z,746.79
2022-08-18T05:09:54.257Z,746.73
2022-08-18T05:10:54.248Z,747.16
2022-08-18T05:11:54.239Z,747.81
2022-08-18T05:12:54.252Z,747.92
2022-08-18T05:13:54.234Z,747.75
2022-08-18T05:14:54.210Z,747.48
2022-08-18T05:16:10.074Z,748.06
2022-08-18T05:16:54.182Z,748.02
2022-08-18T05:17:54.416Z,747.73
2022-08-18T05:18:54.158Z,747.79
2022-08-18T05:19:54.151Z,748.77
2022-08-18T05:20:54.181Z,749.13
2022-08-18T05:21:54.139Z,749.67
2022-08-18T05:22:54.139Z,750.21
2022-08-18T05:23:54.098Z,750.27
2022-08-18T05:24:54.088Z,750.34
2022-08-18T05:25:54.087Z,750.60
2022-08-18T05:26:54.068Z,750.38
2022-08-18T05:27:54.152Z,750.34
2022-08-18T05:29:04.260Z,750.53
2022-08-18T05:29:54.041Z,750.21
2022-08-18T05:30:54.060Z,749.91
2022-08-18T05:31:54.013Z,750.14
2022-08-18T05:32:54.019Z,749.92
2022-08-18T05:33:54.014Z,749.98
2022-08-18T05:34:53.976Z,750.09
2022-08-18T05:35:53.966Z,750.15
2022-08-18T05:36:53.955Z,750.51
2022-08-18T05:37:54.077Z,750.75
2022-08-18T05:38:53.935Z,750.35
2022-08-18T05:39:53.974Z,749.96
2022-08-18T05:40:53.909Z,749.35
2022-08-18T05:41:53.906Z,749.35
2022-08-18T05:42:53.882Z,749.43
2022-08-18T05:43:53.949Z,749.24
2022-08-18T05:44:53.874Z,749.23
2022-08-18T05:45:53.876Z,749.01
2022-08-18T05:46:53.911Z,748.49
2022-08-18T05:47:53.926Z,748.97
2022-08-18T05:48:53.843Z,749.34
2022-08-18T05:49:53.808Z,748.97
2022-08-18T05:50:53.835Z,748.88
2022-08-18T05:51:53.783Z,748.95
2022-08-18T05:52:53.776Z,748.57
2022-08-18T05:53:53.797Z,747.79
2022-08-18T05:54:53.770Z,748.02
2022-08-18T05:55:53.799Z,748.21
2022-08-18T05:56:53.845Z,748.01
2022-08-18T05:57:53.907Z,748.51
2022-08-18T05:58:53.727Z,748.34
2022-08-18T05:59:53.744Z,747.60
2022-08-18T06:00:57.467Z,747.89
2022-08-18T06:01:53.729Z,747.54
2022-08-18T06:02:53.727Z,747.67
2022-08-18T06:03:53.684Z,747.91
2022-08-18T06:04:53.645Z,747.67
2022-08-18T06:06:14.192Z,747.46
2022-08-18T06:07:02.008Z,746.55
2022-08-18T06:08:18.561Z,746.44
2022-08-18T06:12:37.255Z,746.44
2022-08-18T06:13:02.057Z,746.48
2022-08-18T06:13:02.085Z,746.90
2022-08-18T06:14:03.065Z,746.35
2022-08-18T06:15:06.333Z,745.35
2022-08-18T06:16:03.009Z,745.73
2022-08-18T06:17:03.007Z,745.74
2022-08-18T06:18:03.010Z,744.93
2022-08-18T06:19:02.967Z,744.77
2022-08-18T06:20:02.959Z,744.98
2022-08-18T06:21:02.943Z,744.35
2022-08-18T06:22:02.940Z,743.91
2022-08-18T06:23:02.966Z,744.14
2022-08-18T06:24:02.931Z,743.70
2022-08-18T06:25:03.285Z,743.05
2022-08-18T06:26:02.928Z,743.62
2022-08-18T06:27:02.901Z,743.70
2022-08-18T06:28:02.900Z,743.34
2022-08-18T06:29:03.133Z,743.62
2022-08-18T06:30:02.884Z,742.80
2022-08-18T06:31:02.928Z,741.99
2022-08-18T06:32:02.833Z,742.15
2022-08-18T06:33:02.839Z,743.55
2022-08-18T06:34:02.885Z,743.94
2022-08-18T06:35:02.911Z,743.78
2022-08-18T06:36:02.794Z,743.52
2022-08-18T06:37:02.770Z,743.90
2022-08-18T06:38:02.810Z,743.86
2022-08-18T06:39:02.759Z,743.54
2022-08-18T06:40:02.880Z,743.53
2022-08-18T06:41:02.737Z,743.34
2022-08-18T06:42:02.717Z,742.79
2022-08-18T06:43:02.767Z,742.54
2022-08-18T06:44:02.697Z,742.94
2022-08-18T06:45:02.688Z,742.66
2022-08-18T06:46:02.690Z,742.38
2022-08-18T06:47:02.834Z,742.12
2022-08-18T06:48:02.721Z,742.18
2022-08-18T06:49:02.713Z,741.67
2022-08-18T06:50:02.647Z,743.06
2022-08-18T06:51:02.662Z,743.27
2022-08-18T06:52:02.681Z,743.47
2022-08-18T06:53:02.635Z,742.49
2022-08-18T06:54:02.599Z,741.29
2022-08-18T06:55:02.575Z,740.82
2022-08-18T06:56:02.631Z,740.86
2022-08-18T06:58:51.207Z,740.65
2022-08-18T07:01:41.118Z,742.14
2022-08-18T07:10:22.635Z,737.85
2022-08-18T07:10:49.299Z,738.42
2022-08-18T07:10:53.397Z,740.44
2022-08-18T07:10:55.443Z,741.24
2022-08-18T07:14:17.581Z,739.55
2022-08-18T07:22:39.211Z,736.25
2022-08-18T07:22:39.566Z,737.32
2022-08-18T07:23:00.440Z,737.75
2022-08-18T07:23:18.302Z,735.77
2022-08-18T07:24:21.168Z,737.23
2022-08-18T07:24:25.695Z,735.31
2022-08-18T07:25:18.270Z,734.31
2022-08-18T07:26:18.274Z,733.53
2022-08-18T07:27:18.254Z,734.76
2022-08-18T07:28:18.294Z,734.54
2022-08-18T07:29:18.236Z,733.84
2022-08-18T07:30:18.231Z,733.16
2022-08-18T07:31:18.196Z,732.06
2022-08-18T07:32:20.953Z,730.72
2022-08-18T07:33:18.211Z,731.29
2022-08-18T07:34:18.197Z,730.02
2022-08-18T07:35:18.161Z,730.70
2022-08-18T07:36:18.273Z,731.70
2022-08-18T07:37:18.136Z,732.00
2022-08-18T07:38:41.350Z,731.07
2022-08-18T07:39:18.142Z,731.48
2022-08-18T07:40:18.152Z,730.82
2022-08-18T07:41:18.090Z,731.14
2022-08-18T07:42:54.093Z,732.21
2022-08-18T07:43:18.100Z,733.23
2022-08-18T07:44:18.059Z,733.73
2022-08-18T07:45:18.049Z,734.81
2022-08-18T07:46:18.039Z,734.97
2022-08-18T07:47:18.027Z,734.21
2022-08-18T07:48:37.525Z,734.76
2022-08-18T07:49:21.841Z,734.66
2022-08-18T07:50:36.281Z,734.00
2022-08-18T07:51:17.986Z,732.95
2022-08-18T07:52:36.368Z,732.11
2022-08-18T07:53:17.991Z,731.65
2022-08-18T07:54:45.472Z,731.64
2022-08-18T07:55:18.436Z,731.77
2022-08-18T07:57:24.990Z,731.83
2022-08-18T08:02:27.523Z,734.47
2022-08-18T08:03:54.509Z,734.58
2022-08-18T08:04:06.229Z,734.28
2022-08-18T08:04:25.655Z,733.71
2022-08-18T08:04:57.421Z,731.41
2022-08-18T08:07:49.113Z,736.53
2022-08-18T08:09:21.658Z,736.75
2022-08-18T08:13:09.351Z,737.86
2022-08-18T08:19:11.222Z,737.19
2022-08-18T08:19:17.604Z,737.03
2022-08-18T08:20:02.852Z,737.02
2022-08-18T23:09:12.502Z,736.74
2022-08-18T23:10:13.909Z,736.29
2022-08-18T23:11:13.165Z,736.40
2022-08-18T23:12:13.158Z,736.47
2022-08-18T23:13:13.157Z,736.50
2022-08-18T23:14:13.184Z,736.67
2022-08-18T23:15:13.120Z,736.81
2022-08-18T23:16:30.515Z,736.81
2022-08-18T23:17:13.101Z,736.97
2022-08-18T23:18:13.085Z,737.09
2022-08-18T23:19:13.106Z,737.08
2022-08-18T23:20:17.815Z,737.12
2022-08-18T23:21:13.058Z,737.14
2022-08-18T23:22:13.042Z,737.33
2022-08-18T23:23:13.046Z,737.54
2022-08-18T23:24:13.020Z,737.82
2022-08-18T23:25:13.050Z,738.07
2022-08-18T23:26:13.017Z,738.31
2022-08-18T23:27:12.995Z,738.45
2022-08-18T23:28:12.975Z,738.67
2022-08-18T23:29:12.962Z,738.89
2022-08-18T23:30:12.967Z,738.86
2022-08-18T23:31:12.947Z,738.94
2022-08-18T23:32:12.957Z,739.12
2022-08-18T23:33:12.923Z,739.16
2022-08-18T23:34:12.911Z,739.26
2022-08-18T23:35:12.902Z,739.47
2022-08-18T23:36:12.899Z,739.57
2022-08-18T23:37:12.905Z,739.68
2022-08-18T23:38:12.976Z,739.94
2022-08-18T23:39:12.856Z,740.26
2022-08-18T23:40:12.924Z,740.47
2022-08-18T23:41:12.845Z,740.65
2022-08-18T23:42:12.874Z,740.89
2022-08-18T23:43:12.815Z,741.24
2022-08-18T23:44:12.800Z,741.53
2022-08-18T23:45:12.788Z,741.80
2022-08-18T23:46:12.778Z,741.95
2022-08-18T23:47:12.793Z,742.03
2022-08-18T23:48:12.757Z,742.10
2022-08-18T23:49:12.745Z,742.03
2022-08-18T23:50:12.738Z,741.96
2022-08-18T23:51:12.721Z,741.99
2022-08-18T23:52:12.731Z,742.06
2022-08-18T23:53:12.698Z,742.24
2022-08-18T23:54:12.688Z,742.41
2022-08-18T23:55:12.678Z,742.58
2022-08-18T23:56:12.673Z,742.73
2022-08-18T23:57:12.687Z,743.00
2022-08-18T23:58:12.647Z,742.98
2022-08-18T23:59:12.640Z,743.07
